首页
METAR-TAF:

METAR-TAF

机场 :

Grande Prairie, 艾伯塔, 加拿大

纬度: 55-11N, 经度: 118-53W, 海拔: 666米

当前天气观测

该预报发布于19分钟前的02:00 UTC
风速22节,风向西
温度 10°C
湿度 43%
气压 1012 hPa
能見度: 40.2公里
多云层高于6000英尺
阴天层高于12000英尺

METAR: CYQU 080200Z 27022KT 25SM BKN060 OVC120 10/M02 A2987 RMK SC6AC2 SLP131 DENSITY ALT 2200FT

时间: 20:19 (02:19 UTC)

预报

该预报发布于1小时和41分钟前的00:38 UTC
预报有效从08日的 01点(UTC)到 08日的 13点(UTC)
风速20节,风向西转西南,有时为30节阵风
能見度: 10公里
多云层高于7000英尺
多云层高于14000英尺
从 08日的 0700点(UTC)
风速20节,风向西转西北
能見度: 10公里
少量云层高于7000英尺
多云层高于12000英尺
成为
从 08日的 10点(UTC)到 08日的 12点(UTC)
风速12节,风向西转西南

TAF: CYQU 080038Z 0801/0813 25020G30KT P6SM BKN070 BKN140 FM080700 29020KT P6SM FEW070 BKN120 BECMG 0810/0812 25012KT RMK NXT FCST BY 080700Z

超过4000个机场的气象观测和天气预报(METAR&TAF报告)。

可查询的气象台以黄色和红色小点在地图上表示。

将鼠标移到小点上方,可查看气象台名称。

然后点击查看天气观测和预报。

如需切换地图:点击带黑十字的绿色按钮放大地图;点击带横线的绿色按钮缩小地图;或者点击绿色箭头查看邻近地区的地图。


METAR-TAF: